sensor_id;sensor_type;location;lat;lon;timestamp;P1;durP1;ratioP1;P2;durP2;ratioP2
51995;SDS011;38010;53.264;6.592;2023-05-21T00:01:00;0.60;;;0.50;;
51995;SDS011;38010;53.264;6.592;2023-05-21T00:03:27;0.70;;;0.65;;
51995;SDS011;38010;53.264;6.592;2023-05-21T00:05:54;0.70;;;0.52;;
51995;SDS011;38010;53.264;6.592;2023-05-21T00:08:21;0.68;;;0.50;;
51995;SDS011;38010;53.264;6.592;2023-05-21T00:10:47;0.60;;;0.50;;
51995;SDS011;38010;53.264;6.592;2023-05-21T00:13:12;0.73;;;0.60;;
51995;SDS011;38010;53.264;6.592;2023-05-21T00:15:38;0.80;;;0.50;;
51995;SDS011;38010;53.264;6.592;2023-05-21T00:18:04;0.50;;;0.50;;
51995;SDS011;38010;53.264;6.592;2023-05-21T00:20:30;0.50;;;0.50;;
51995;SDS011;38010;53.264;6.592;2023-05-21T00:22:59;0.50;;;0.50;;
51995;SDS011;38010;53.264;6.592;2023-05-21T00:25:29;0.55;;;0.55;;
51995;SDS011;38010;53.264;6.592;2023-05-21T00:27:55;0.60;;;0.60;;
51995;SDS011;38010;53.264;6.592;2023-05-21T00:30:21;0.50;;;0.50;;
51995;SDS011;38010;53.264;6.592;2023-05-21T00:32:46;0.95;;;0.50;;
51995;SDS011;38010;53.264;6.592;2023-05-21T00:35:12;0.50;;;0.50;;
51995;SDS011;38010;53.264;6.592;2023-05-21T00:37:38;0.95;;;0.60;;
51995;SDS011;38010;53.264;6.592;2023-05-21T00:40:05;1.33;;;0.70;;
51995;SDS011;38010;53.264;6.592;2023-05-21T00:42:35;0.45;;;0.45;;
51995;SDS011;38010;53.264;6.592;2023-05-21T00:45:05;0.60;;;0.60;;
51995;SDS011;38010;53.264;6.592;2023-05-21T00:47:31;0.80;;;0.60;;
51995;SDS011;38010;53.264;6.592;2023-05-21T00:49:58;0.90;;;0.65;;
51995;SDS011;38010;53.264;6.592;2023-05-21T00:52:25;1.20;;;0.70;;
51995;SDS011;38010;53.264;6.592;2023-05-21T00:54:51;0.85;;;0.70;;
51995;SDS011;38010;53.264;6.592;2023-05-21T00:57:18;0.40;;;0.40;;
51995;SDS011;38010;53.264;6.592;2023-05-21T00:59:46;0.50;;;0.50;;
51995;SDS011;38010;53.264;6.592;2023-05-21T01:02:14;0.60;;;0.60;;
51995;SDS011;38010;53.264;6.592;2023-05-21T01:04:42;0.88;;;0.70;;
51995;SDS011;38010;53.264;6.592;2023-05-21T01:07:12;0.60;;;0.60;;
51995;SDS011;38010;53.264;6.592;2023-05-21T01:09:39;0.55;;;0.52;;
51995;SDS011;38010;53.264;6.592;2023-05-21T01:12:06;0.60;;;0.60;;
51995;SDS011;38010;53.264;6.592;2023-05-21T01:14:33;0.52;;;0.52;;
51995;SDS011;38010;53.264;6.592;2023-05-21T01:17:01;0.60;;;0.50;;
51995;SDS011;38010;53.264;6.592;2023-05-21T01:19:29;1.17;;;0.88;;
51995;SDS011;38010;53.264;6.592;2023-05-21T01:21:59;0.95;;;0.60;;
51995;SDS011;38010;53.264;6.592;2023-05-21T01:24:28;0.75;;;0.50;;
51995;SDS011;38010;53.264;6.592;2023-05-21T01:26:54;0.50;;;0.50;;
51995;SDS011;38010;53.264;6.592;2023-05-21T01:29:20;0.50;;;0.50;;
51995;SDS011;38010;53.264;6.592;2023-05-21T01:35:23;0.57;;;0.57;;
51995;SDS011;38010;53.264;6.592;2023-05-21T01:39:59;0.90;;;0.70;;
51995;SDS011;38010;53.264;6.592;2023-05-21T01:42:35;0.95;;;0.80;;
51995;SDS011;38010;53.264;6.592;2023-05-21T01:45:03;0.70;;;0.68;;
51995;SDS011;38010;53.264;6.592;2023-05-21T01:47:31;0.57;;;0.55;;
51995;SDS011;38010;53.264;6.592;2023-05-21T01:49:58;0.55;;;0.50;;
51995;SDS011;38010;53.264;6.592;2023-05-21T01:52:25;0.85;;;0.60;;
51995;SDS011;38010;53.264;6.592;2023-05-21T01:54:51;0.82;;;0.68;;
51995;SDS011;38010;53.264;6.592;2023-05-21T01:57:18;0.70;;;0.60;;
51995;SDS011;38010;53.264;6.592;2023-05-21T01:59:45;0.88;;;0.80;;
51995;SDS011;38010;53.264;6.592;2023-05-21T02:02:11;0.50;;;0.50;;
51995;SDS011;38010;53.264;6.592;2023-05-21T02:04:37;1.45;;;0.70;;
51995;SDS011;38010;53.264;6.592;2023-05-21T02:07:05;0.63;;;0.60;;
51995;SDS011;38010;53.264;6.592;2023-05-21T02:09:31;1.63;;;0.70;;
51995;SDS011;38010;53.264;6.592;2023-05-21T02:11:57;1.52;;;0.60;;
51995;SDS011;38010;53.264;6.592;2023-05-21T02:14:23;0.60;;;0.60;;
51995;SDS011;38010;53.264;6.592;2023-05-21T02:16:51;0.95;;;0.57;;
51995;SDS011;38010;53.264;6.592;2023-05-21T02:19:17;0.90;;;0.60;;
51995;SDS011;38010;53.264;6.592;2023-05-21T02:21:43;0.65;;;0.65;;
51995;SDS011;38010;53.264;6.592;2023-05-21T02:24:09;0.70;;;0.70;;
51995;SDS011;38010;53.264;6.592;2023-05-21T02:26:35;0.68;;;0.60;;
51995;SDS011;38010;53.264;6.592;2023-05-21T02:29:02;0.85;;;0.70;;
51995;SDS011;38010;53.264;6.592;2023-05-21T02:31:28;1.00;;;0.90;;
51995;SDS011;38010;53.264;6.592;2023-05-21T02:33:53;0.90;;;0.55;;
51995;SDS011;38010;53.264;6.592;2023-05-21T02:36:20;0.40;;;0.40;;
51995;SDS011;38010;53.264;6.592;2023-05-21T02:38:46;2.05;;;0.80;;
51995;SDS011;38010;53.264;6.592;2023-05-21T02:41:11;1.20;;;0.75;;
51995;SDS011;38010;53.264;6.592;2023-05-21T02:43:38;0.73;;;0.60;;
51995;SDS011;38010;53.264;6.592;2023-05-21T02:46:04;0.68;;;0.60;;
51995;SDS011;38010;53.264;6.592;2023-05-21T02:48:30;1.27;;;0.77;;
51995;SDS011;38010;53.264;6.592;2023-05-21T02:50:56;0.77;;;0.60;;
51995;SDS011;38010;53.264;6.592;2023-05-21T02:53:23;0.60;;;0.60;;
51995;SDS011;38010;53.264;6.592;2023-05-21T02:55:48;0.77;;;0.70;;
51995;SDS011;38010;53.264;6.592;2023-05-21T02:58:14;0.70;;;0.60;;
51995;SDS011;38010;53.264;6.592;2023-05-21T03:00:40;1.05;;;0.80;;
51995;SDS011;38010;53.264;6.592;2023-05-21T03:03:06;1.23;;;0.70;;
51995;SDS011;38010;53.264;6.592;2023-05-21T03:05:31;1.23;;;0.70;;
51995;SDS011;38010;53.264;6.592;2023-05-21T03:07:57;1.08;;;0.80;;
51995;SDS011;38010;53.264;6.592;2023-05-21T03:10:23;0.70;;;0.70;;
51995;SDS011;38010;53.264;6.592;2023-05-21T03:12:49;0.90;;;0.68;;
51995;SDS011;38010;53.264;6.592;2023-05-21T03:15:15;0.98;;;0.88;;
51995;SDS011;38010;53.264;6.592;2023-05-21T03:17:40;0.90;;;0.80;;
51995;SDS011;38010;53.264;6.592;2023-05-21T03:20:07;1.00;;;0.70;;
51995;SDS011;38010;53.264;6.592;2023-05-21T03:22:40;1.00;;;0.73;;
51995;SDS011;38010;53.264;6.592;2023-05-21T03:25:09;1.10;;;0.80;;
51995;SDS011;38010;53.264;6.592;2023-05-21T03:27:39;0.60;;;0.60;;
51995;SDS011;38010;53.264;6.592;2023-05-21T03:30:05;0.70;;;0.60;;
51995;SDS011;38010;53.264;6.592;2023-05-21T03:32:31;1.20;;;0.80;;
51995;SDS011;38010;53.264;6.592;2023-05-21T03:34:58;1.02;;;0.70;;
51995;SDS011;38010;53.264;6.592;2023-05-21T03:37:24;0.90;;;0.70;;
51995;SDS011;38010;53.264;6.592;2023-05-21T03:39:50;1.02;;;0.75;;
51995;SDS011;38010;53.264;6.592;2023-05-21T03:42:15;0.65;;;0.65;;
51995;SDS011;38010;53.264;6.592;2023-05-21T03:44:41;0.70;;;0.70;;
51995;SDS011;38010;53.264;6.592;2023-05-21T03:47:07;1.20;;;0.82;;
51995;SDS011;38010;53.264;6.592;2023-05-21T03:49:32;0.88;;;0.70;;
51995;SDS011;38010;53.264;6.592;2023-05-21T03:51:58;0.88;;;0.80;;
51995;SDS011;38010;53.264;6.592;2023-05-21T03:54:24;1.25;;;0.60;;
51995;SDS011;38010;53.264;6.592;2023-05-21T03:56:50;0.80;;;0.70;;
51995;SDS011;38010;53.264;6.592;2023-05-21T03:59:15;0.73;;;0.65;;
51995;SDS011;38010;53.264;6.592;2023-05-21T04:01:41;1.20;;;0.68;;
51995;SDS011;38010;53.264;6.592;2023-05-21T04:04:07;1.55;;;1.00;;
51995;SDS011;38010;53.264;6.592;2023-05-21T04:06:33;0.93;;;0.70;;
51995;SDS011;38010;53.264;6.592;2023-05-21T04:08:59;0.73;;;0.73;;
51995;SDS011;38010;53.264;6.592;2023-05-21T04:11:25;0.80;;;0.80;;
51995;SDS011;38010;53.264;6.592;2023-05-21T04:13:51;1.52;;;0.80;;
51995;SDS011;38010;53.264;6.592;2023-05-21T04:16:16;1.55;;;1.05;;
51995;SDS011;38010;53.264;6.592;2023-05-21T04:18:43;0.85;;;0.70;;
51995;SDS011;38010;53.264;6.592;2023-05-21T04:21:12;1.77;;;0.88;;
51995;SDS011;38010;53.264;6.592;2023-05-21T04:23:38;1.05;;;0.70;;
51995;SDS011;38010;53.264;6.592;2023-05-21T04:26:04;0.90;;;0.80;;
51995;SDS011;38010;53.264;6.592;2023-05-21T04:28:29;0.68;;;0.68;;
51995;SDS011;38010;53.264;6.592;2023-05-21T04:30:55;1.35;;;0.80;;
51995;SDS011;38010;53.264;6.592;2023-05-21T04:33:21;0.75;;;0.70;;
51995;SDS011;38010;53.264;6.592;2023-05-21T04:35:48;1.10;;;0.85;;
51995;SDS011;38010;53.264;6.592;2023-05-21T04:38:15;0.65;;;0.60;;
51995;SDS011;38010;53.264;6.592;2023-05-21T04:40:45;1.98;;;0.80;;
51995;SDS011;38010;53.264;6.592;2023-05-21T04:43:17;1.40;;;0.70;;
51995;SDS011;38010;53.264;6.592;2023-05-21T04:45:50;1.33;;;0.57;;
51995;SDS011;38010;53.264;6.592;2023-05-21T04:48:17;0.82;;;0.70;;
51995;SDS011;38010;53.264;6.592;2023-05-21T04:50:43;0.60;;;0.60;;
51995;SDS011;38010;53.264;6.592;2023-05-21T04:53:08;1.08;;;0.70;;
51995;SDS011;38010;53.264;6.592;2023-05-21T04:55:34;1.10;;;0.90;;
51995;SDS011;38010;53.264;6.592;2023-05-21T04:58:04;1.05;;;0.90;;
51995;SDS011;38010;53.264;6.592;2023-05-21T05:00:31;1.10;;;0.75;;
51995;SDS011;38010;53.264;6.592;2023-05-21T05:02:57;1.05;;;0.70;;
51995;SDS011;38010;53.264;6.592;2023-05-21T05:05:23;0.65;;;0.60;;
51995;SDS011;38010;53.264;6.592;2023-05-21T05:07:49;1.10;;;0.70;;
51995;SDS011;38010;53.264;6.592;2023-05-21T05:10:15;0.80;;;0.60;;
51995;SDS011;38010;53.264;6.592;2023-05-21T05:12:41;0.70;;;0.68;;
51995;SDS011;38010;53.264;6.592;2023-05-21T05:15:07;1.05;;;0.70;;
51995;SDS011;38010;53.264;6.592;2023-05-21T05:17:33;0.80;;;0.65;;
51995;SDS011;38010;53.264;6.592;2023-05-21T05:19:59;4.50;;;0.70;;
51995;SDS011;38010;53.264;6.592;2023-05-21T05:22:25;1.02;;;0.63;;
51995;SDS011;38010;53.264;6.592;2023-05-21T05:24:51;1.02;;;0.70;;
51995;SDS011;38010;53.264;6.592;2023-05-21T05:27:17;0.60;;;0.60;;
51995;SDS011;38010;53.264;6.592;2023-05-21T05:29:43;0.60;;;0.57;;
51995;SDS011;38010;53.264;6.592;2023-05-21T05:32:09;1.55;;;0.68;;
51995;SDS011;38010;53.264;6.592;2023-05-21T05:34:36;0.85;;;0.60;;
51995;SDS011;38010;53.264;6.592;2023-05-21T05:37:02;0.98;;;0.73;;
51995;SDS011;38010;53.264;6.592;2023-05-21T05:39:28;1.00;;;0.70;;
51995;SDS011;38010;53.264;6.592;2023-05-21T05:41:54;0.82;;;0.80;;
51995;SDS011;38010;53.264;6.592;2023-05-21T05:44:19;0.90;;;0.68;;
51995;SDS011;38010;53.264;6.592;2023-05-21T05:46:45;0.73;;;0.60;;
51995;SDS011;38010;53.264;6.592;2023-05-21T05:49:11;0.68;;;0.68;;
51995;SDS011;38010;53.264;6.592;2023-05-21T05:51:38;0.95;;;0.60;;
51995;SDS011;38010;53.264;6.592;2023-05-21T05:54:04;1.15;;;0.80;;
51995;SDS011;38010;53.264;6.592;2023-05-21T05:56:30;1.00;;;0.60;;
51995;SDS011;38010;53.264;6.592;2023-05-21T05:58:56;0.70;;;0.68;;
51995;SDS011;38010;53.264;6.592;2023-05-21T06:01:22;0.60;;;0.50;;
51995;SDS011;38010;53.264;6.592;2023-05-21T06:03:48;1.27;;;0.57;;
51995;SDS011;38010;53.264;6.592;2023-05-21T06:06:15;0.90;;;0.70;;
51995;SDS011;38010;53.264;6.592;2023-05-21T06:08:41;1.00;;;0.80;;
51995;SDS011;38010;53.264;6.592;2023-05-21T06:11:07;1.02;;;0.73;;
51995;SDS011;38010;53.264;6.592;2023-05-21T06:13:33;1.23;;;0.70;;
51995;SDS011;38010;53.264;6.592;2023-05-21T06:15:59;1.20;;;0.77;;
51995;SDS011;38010;53.264;6.592;2023-05-21T06:18:25;0.90;;;0.65;;
51995;SDS011;38010;53.264;6.592;2023-05-21T06:20:52;1.00;;;0.63;;
51995;SDS011;38010;53.264;6.592;2023-05-21T06:23:18;1.00;;;0.68;;
51995;SDS011;38010;53.264;6.592;2023-05-21T06:25:43;1.13;;;0.70;;
51995;SDS011;38010;53.264;6.592;2023-05-21T06:28:09;1.13;;;0.82;;
51995;SDS011;38010;53.264;6.592;2023-05-21T06:30:35;1.63;;;1.02;;
51995;SDS011;38010;53.264;6.592;2023-05-21T06:33:01;1.38;;;0.80;;
51995;SDS011;38010;53.264;6.592;2023-05-21T06:35:27;0.93;;;0.70;;
51995;SDS011;38010;53.264;6.592;2023-05-21T06:37:52;1.13;;;0.75;;
51995;SDS011;38010;53.264;6.592;2023-05-21T06:40:18;1.17;;;0.80;;
51995;SDS011;38010;53.264;6.592;2023-05-21T06:42:44;1.95;;;0.70;;
51995;SDS011;38010;53.264;6.592;2023-05-21T06:45:10;1.15;;;0.80;;
51995;SDS011;38010;53.264;6.592;2023-05-21T06:47:36;1.05;;;0.90;;
51995;SDS011;38010;53.264;6.592;2023-05-21T06:50:02;1.00;;;0.90;;
51995;SDS011;38010;53.264;6.592;2023-05-21T06:52:28;1.10;;;0.70;;
51995;SDS011;38010;53.264;6.592;2023-05-21T06:54:55;1.30;;;0.80;;
51995;SDS011;38010;53.264;6.592;2023-05-21T06:57:21;1.23;;;0.73;;
51995;SDS011;38010;53.264;6.592;2023-05-21T06:59:47;1.25;;;0.98;;
51995;SDS011;38010;53.264;6.592;2023-05-21T07:02:12;1.02;;;0.80;;
51995;SDS011;38010;53.264;6.592;2023-05-21T07:04:38;1.23;;;0.60;;
51995;SDS011;38010;53.264;6.592;2023-05-21T07:07:04;0.93;;;0.60;;
51995;SDS011;38010;53.264;6.592;2023-05-21T07:09:30;0.80;;;0.63;;
51995;SDS011;38010;53.264;6.592;2023-05-21T07:11:56;0.82;;;0.60;;
51995;SDS011;38010;53.264;6.592;2023-05-21T07:14:23;1.17;;;0.77;;
51995;SDS011;38010;53.264;6.592;2023-05-21T07:16:49;1.00;;;0.77;;
51995;SDS011;38010;53.264;6.592;2023-05-21T07:19:15;1.10;;;0.70;;
51995;SDS011;38010;53.264;6.592;2023-05-21T07:21:40;2.38;;;0.80;;
51995;SDS011;38010;53.264;6.592;2023-05-21T07:24:06;1.10;;;0.77;;
51995;SDS011;38010;53.264;6.592;2023-05-21T07:26:32;1.25;;;0.70;;
51995;SDS011;38010;53.264;6.592;2023-05-21T07:28:57;0.85;;;0.70;;
51995;SDS011;38010;53.264;6.592;2023-05-21T07:31:23;1.17;;;0.70;;
51995;SDS011;38010;53.264;6.592;2023-05-21T07:33:49;0.75;;;0.60;;
51995;SDS011;38010;53.264;6.592;2023-05-21T07:36:15;0.95;;;0.68;;
51995;SDS011;38010;53.264;6.592;2023-05-21T07:38:42;1.75;;;0.75;;
51995;SDS011;38010;53.264;6.592;2023-05-21T07:41:08;1.58;;;0.70;;
51995;SDS011;38010;53.264;6.592;2023-05-21T07:43:34;0.80;;;0.65;;
51995;SDS011;38010;53.264;6.592;2023-05-21T07:46:00;1.98;;;0.82;;
51995;SDS011;38010;53.264;6.592;2023-05-21T07:48:26;0.80;;;0.60;;
51995;SDS011;38010;53.264;6.592;2023-05-21T07:50:52;1.30;;;1.00;;
51995;SDS011;38010;53.264;6.592;2023-05-21T07:53:17;0.70;;;0.70;;
51995;SDS011;38010;53.264;6.592;2023-05-21T07:55:44;0.80;;;0.70;;
51995;SDS011;38010;53.264;6.592;2023-05-21T07:58:15;1.05;;;0.60;;
51995;SDS011;38010;53.264;6.592;2023-05-21T08:00:43;0.73;;;0.70;;
51995;SDS011;38010;53.264;6.592;2023-05-21T08:03:12;0.82;;;0.75;;
51995;SDS011;38010;53.264;6.592;2023-05-21T08:05:40;1.05;;;0.55;;
51995;SDS011;38010;53.264;6.592;2023-05-21T08:08:09;1.10;;;0.70;;
51995;SDS011;38010;53.264;6.592;2023-05-21T08:10:35;1.15;;;0.60;;
51995;SDS011;38010;53.264;6.592;2023-05-21T08:13:01;0.60;;;0.60;;
51995;SDS011;38010;53.264;6.592;2023-05-21T08:15:27;0.95;;;0.63;;
51995;SDS011;38010;53.264;6.592;2023-05-21T08:17:52;1.38;;;0.70;;
51995;SDS011;38010;53.264;6.592;2023-05-21T08:20:18;1.02;;;0.80;;
51995;SDS011;38010;53.264;6.592;2023-05-21T08:22:44;0.98;;;0.63;;
51995;SDS011;38010;53.264;6.592;2023-05-21T08:25:10;0.73;;;0.73;;
51995;SDS011;38010;53.264;6.592;2023-05-21T08:27:36;1.95;;;0.70;;
51995;SDS011;38010;53.264;6.592;2023-05-21T08:30:02;1.27;;;0.60;;
51995;SDS011;38010;53.264;6.592;2023-05-21T08:32:28;1.30;;;0.80;;
51995;SDS011;38010;53.264;6.592;2023-05-21T08:34:54;2.63;;;1.23;;
51995;SDS011;38010;53.264;6.592;2023-05-21T08:37:20;1.23;;;0.70;;
51995;SDS011;38010;53.264;6.592;2023-05-21T08:39:46;3.10;;;1.00;;
51995;SDS011;38010;53.264;6.592;2023-05-21T08:42:16;1.25;;;0.82;;
51995;SDS011;38010;53.264;6.592;2023-05-21T08:44:51;1.42;;;0.80;;
51995;SDS011;38010;53.264;6.592;2023-05-21T08:47:23;1.25;;;0.93;;
51995;SDS011;38010;53.264;6.592;2023-05-21T08:49:51;2.53;;;1.15;;
51995;SDS011;38010;53.264;6.592;2023-05-21T08:52:18;2.03;;;1.20;;
51995;SDS011;38010;53.264;6.592;2023-05-21T08:54:45;1.73;;;1.00;;
51995;SDS011;38010;53.264;6.592;2023-05-21T08:57:14;1.00;;;0.80;;
51995;SDS011;38010;53.264;6.592;2023-05-21T08:59:44;2.00;;;1.08;;
51995;SDS011;38010;53.264;6.592;2023-05-21T09:02:11;1.85;;;1.10;;
51995;SDS011;38010;53.264;6.592;2023-05-21T09:04:40;2.33;;;1.00;;
51995;SDS011;38010;53.264;6.592;2023-05-21T09:07:07;1.20;;;0.80;;
51995;SDS011;38010;53.264;6.592;2023-05-21T09:09:38;0.95;;;0.60;;
51995;SDS011;38010;53.264;6.592;2023-05-21T09:12:11;1.98;;;1.00;;
51995;SDS011;38010;53.264;6.592;2023-05-21T09:14:37;2.70;;;1.10;;
51995;SDS011;38010;53.264;6.592;2023-05-21T09:17:04;1.17;;;0.90;;
51995;SDS011;38010;53.264;6.592;2023-05-21T09:19:30;1.90;;;0.95;;
51995;SDS011;38010;53.264;6.592;2023-05-21T09:22:02;2.03;;;1.10;;
51995;SDS011;38010;53.264;6.592;2023-05-21T09:24:31;0.67;;;0.60;;
51995;SDS011;38010;53.264;6.592;2023-05-21T09:26:57;1.30;;;0.82;;
51995;SDS011;38010;53.264;6.592;2023-05-21T09:29:23;1.10;;;0.73;;
51995;SDS011;38010;53.264;6.592;2023-05-21T09:31:50;1.88;;;1.00;;
51995;SDS011;38010;53.264;6.592;2023-05-21T09:34:16;3.08;;;1.10;;
51995;SDS011;38010;53.264;6.592;2023-05-21T09:36:42;2.30;;;0.70;;
51995;SDS011;38010;53.264;6.592;2023-05-21T09:39:07;1.83;;;0.80;;
51995;SDS011;38010;53.264;6.592;2023-05-21T09:41:36;1.08;;;0.82;;
51995;SDS011;38010;53.264;6.592;2023-05-21T09:44:02;1.48;;;0.82;;
51995;SDS011;38010;53.264;6.592;2023-05-21T09:46:38;1.23;;;0.80;;
51995;SDS011;38010;53.264;6.592;2023-05-21T09:49:05;1.58;;;0.90;;
51995;SDS011;38010;53.264;6.592;2023-05-21T09:51:31;2.65;;;0.90;;
51995;SDS011;38010;53.264;6.592;2023-05-21T09:53:57;2.47;;;1.02;;
51995;SDS011;38010;53.264;6.592;2023-05-21T09:56:26;1.85;;;0.88;;
51995;SDS011;38010;53.264;6.592;2023-05-21T09:58:59;2.35;;;0.90;;
51995;SDS011;38010;53.264;6.592;2023-05-21T10:01:29;0.83;;;0.70;;
51995;SDS011;38010;53.264;6.592;2023-05-21T10:04:00;2.38;;;0.90;;
51995;SDS011;38010;53.264;6.592;2023-05-21T10:06:33;3.60;;;0.98;;
51995;SDS011;38010;53.264;6.592;2023-05-21T10:11:32;1.20;;;0.90;;
51995;SDS011;38010;53.264;6.592;2023-05-21T10:14:03;1.35;;;0.73;;
51995;SDS011;38010;53.264;6.592;2023-05-21T10:16:34;0.98;;;0.70;;
51995;SDS011;38010;53.264;6.592;2023-05-21T10:19:00;2.40;;;0.90;;
51995;SDS011;38010;53.264;6.592;2023-05-21T10:21:27;1.92;;;0.85;;
51995;SDS011;38010;53.264;6.592;2023-05-21T10:24:00;2.50;;;1.10;;
51995;SDS011;38010;53.264;6.592;2023-05-21T10:26:34;1.98;;;0.90;;
51995;SDS011;38010;53.264;6.592;2023-05-21T10:29:05;2.42;;;0.88;;
51995;SDS011;38010;53.264;6.592;2023-05-21T10:31:32;3.67;;;1.05;;
51995;SDS011;38010;53.264;6.592;2023-05-21T10:33:59;2.40;;;0.90;;
51995;SDS011;38010;53.264;6.592;2023-05-21T10:36:29;2.38;;;1.23;;
51995;SDS011;38010;53.264;6.592;2023-05-21T10:38:58;4.45;;;1.15;;
51995;SDS011;38010;53.264;6.592;2023-05-21T10:41:25;4.90;;;1.00;;
51995;SDS011;38010;53.264;6.592;2023-05-21T10:44:17;1.80;;;0.95;;
51995;SDS011;38010;53.264;6.592;2023-05-21T11:00:43;3.88;;;1.08;;
51995;SDS011;38010;53.264;6.592;2023-05-21T11:03:10;3.50;;;1.10;;
51995;SDS011;38010;53.264;6.592;2023-05-21T11:05:38;2.70;;;1.00;;
51995;SDS011;38010;53.264;6.592;2023-05-21T11:08:11;4.38;;;0.98;;
51995;SDS011;38010;53.264;6.592;2023-05-21T11:10:50;1.45;;;0.90;;
51995;SDS011;38010;53.264;6.592;2023-05-21T11:13:16;4.03;;;0.90;;
51995;SDS011;38010;53.264;6.592;2023-05-21T11:21:03;11.40;;;1.70;;
51995;SDS011;38010;53.264;6.592;2023-05-21T11:26:24;6.03;;;1.17;;
51995;SDS011;38010;53.264;6.592;2023-05-21T11:31:29;10.32;;;1.50;;
51995;SDS011;38010;53.264;6.592;2023-05-21T11:36:44;7.13;;;1.67;;
51995;SDS011;38010;53.264;6.592;2023-05-21T11:39:12;3.95;;;1.17;;
51995;SDS011;38010;53.264;6.592;2023-05-21T11:41:52;4.07;;;1.38;;
51995;SDS011;38010;53.264;6.592;2023-05-21T11:47:18;5.00;;;1.35;;
51995;SDS011;38010;53.264;6.592;2023-05-21T11:49:46;8.55;;;1.48;;
51995;SDS011;38010;53.264;6.592;2023-05-21T11:52:16;7.07;;;1.48;;
51995;SDS011;38010;53.264;6.592;2023-05-21T11:54:48;4.70;;;1.65;;
51995;SDS011;38010;53.264;6.592;2023-05-21T11:57:19;2.30;;;1.10;;
51995;SDS011;38010;53.264;6.592;2023-05-21T11:59:46;5.22;;;1.42;;
51995;SDS011;38010;53.264;6.592;2023-05-21T12:02:23;2.53;;;1.20;;
51995;SDS011;38010;53.264;6.592;2023-05-21T12:04:51;6.72;;;1.50;;
51995;SDS011;38010;53.264;6.592;2023-05-21T12:07:17;2.83;;;1.45;;
51995;SDS011;38010;53.264;6.592;2023-05-21T12:09:47;2.55;;;1.00;;
51995;SDS011;38010;53.264;6.592;2023-05-21T12:12:18;1.88;;;1.00;;
51995;SDS011;38010;53.264;6.592;2023-05-21T12:14:46;3.65;;;1.40;;
51995;SDS011;38010;53.264;6.592;2023-05-21T12:17:19;3.83;;;1.13;;
51995;SDS011;38010;53.264;6.592;2023-05-21T12:19:46;2.35;;;1.60;;
51995;SDS011;38010;53.264;6.592;2023-05-21T12:22:14;2.92;;;1.30;;
51995;SDS011;38010;53.264;6.592;2023-05-21T12:24:40;2.78;;;1.30;;
51995;SDS011;38010;53.264;6.592;2023-05-21T12:27:10;3.13;;;1.50;;
51995;SDS011;38010;53.264;6.592;2023-05-21T12:29:38;5.13;;;1.20;;
51995;SDS011;38010;53.264;6.592;2023-05-21T12:32:06;2.05;;;1.10;;
51995;SDS011;38010;53.264;6.592;2023-05-21T12:37:03;13.40;;;2.53;;
51995;SDS011;38010;53.264;6.592;2023-05-21T12:39:31;4.63;;;1.55;;
51995;SDS011;38010;53.264;6.592;2023-05-21T12:41:57;6.70;;;1.95;;
51995;SDS011;38010;53.264;6.592;2023-05-21T12:44:27;5.07;;;1.55;;
51995;SDS011;38010;53.264;6.592;2023-05-21T12:46:55;5.90;;;1.38;;
51995;SDS011;38010;53.264;6.592;2023-05-21T12:49:34;5.18;;;1.67;;
51995;SDS011;38010;53.264;6.592;2023-05-21T12:52:04;3.92;;;1.70;;
51995;SDS011;38010;53.264;6.592;2023-05-21T12:54:34;5.65;;;1.60;;
51995;SDS011;38010;53.264;6.592;2023-05-21T12:57:06;4.80;;;1.40;;
51995;SDS011;38010;53.264;6.592;2023-05-21T12:59:50;4.97;;;1.75;;
51995;SDS011;38010;53.264;6.592;2023-05-21T13:02:41;2.22;;;1.33;;
51995;SDS011;38010;53.264;6.592;2023-05-21T13:05:17;2.40;;;1.70;;
51995;SDS011;38010;53.264;6.592;2023-05-21T13:07:43;3.28;;;1.45;;
51995;SDS011;38010;53.264;6.592;2023-05-21T13:10:11;2.25;;;1.65;;
51995;SDS011;38010;53.264;6.592;2023-05-21T13:12:37;3.22;;;1.60;;
51995;SDS011;38010;53.264;6.592;2023-05-21T13:15:03;3.10;;;1.50;;
51995;SDS011;38010;53.264;6.592;2023-05-21T13:17:31;3.05;;;1.77;;
51995;SDS011;38010;53.264;6.592;2023-05-21T13:22:45;3.88;;;1.83;;
51995;SDS011;38010;53.264;6.592;2023-05-21T13:25:24;2.90;;;1.60;;
51995;SDS011;38010;53.264;6.592;2023-05-21T13:27:54;3.13;;;1.47;;
51995;SDS011;38010;53.264;6.592;2023-05-21T13:30:20;3.72;;;1.85;;
51995;SDS011;38010;53.264;6.592;2023-05-21T13:32:46;2.35;;;1.60;;
51995;SDS011;38010;53.264;6.592;2023-05-21T13:35:12;2.88;;;1.50;;
51995;SDS011;38010;53.264;6.592;2023-05-21T13:37:40;2.95;;;1.38;;
51995;SDS011;38010;53.264;6.592;2023-05-21T13:40:09;3.30;;;1.80;;
51995;SDS011;38010;53.264;6.592;2023-05-21T13:42:39;2.95;;;1.50;;
51995;SDS011;38010;53.264;6.592;2023-05-21T13:45:05;3.35;;;1.63;;
51995;SDS011;38010;53.264;6.592;2023-05-21T13:47:32;3.22;;;1.35;;
51995;SDS011;38010;53.264;6.592;2023-05-21T13:49:58;2.25;;;1.58;;
51995;SDS011;38010;53.264;6.592;2023-05-21T13:52:23;3.95;;;1.42;;
51995;SDS011;38010;53.264;6.592;2023-05-21T13:54:49;2.67;;;1.50;;
51995;SDS011;38010;53.264;6.592;2023-05-21T13:57:15;4.20;;;1.63;;
51995;SDS011;38010;53.264;6.592;2023-05-21T13:59:41;3.00;;;1.90;;
51995;SDS011;38010;53.264;6.592;2023-05-21T14:02:07;3.08;;;1.48;;
51995;SDS011;38010;53.264;6.592;2023-05-21T14:04:33;4.28;;;2.05;;
51995;SDS011;38010;53.264;6.592;2023-05-21T14:06:59;2.15;;;1.50;;
51995;SDS011;38010;53.264;6.592;2023-05-21T14:09:25;2.17;;;1.40;;
51995;SDS011;38010;53.264;6.592;2023-05-21T14:11:54;3.65;;;1.50;;
51995;SDS011;38010;53.264;6.592;2023-05-21T14:14:20;2.25;;;1.10;;
51995;SDS011;38010;53.264;6.592;2023-05-21T14:16:47;1.58;;;1.20;;
51995;SDS011;38010;53.264;6.592;2023-05-21T14:19:13;1.33;;;1.13;;
51995;SDS011;38010;53.264;6.592;2023-05-21T14:21:39;1.58;;;1.08;;
51995;SDS011;38010;53.264;6.592;2023-05-21T14:24:06;1.60;;;1.10;;
51995;SDS011;38010;53.264;6.592;2023-05-21T14:26:32;2.25;;;1.23;;
51995;SDS011;38010;53.264;6.592;2023-05-21T14:29:00;2.08;;;1.00;;
51995;SDS011;38010;53.264;6.592;2023-05-21T14:31:26;1.92;;;1.23;;
51995;SDS011;38010;53.264;6.592;2023-05-21T14:33:52;1.95;;;1.10;;
51995;SDS011;38010;53.264;6.592;2023-05-21T14:36:18;1.73;;;1.10;;
51995;SDS011;38010;53.264;6.592;2023-05-21T14:38:45;1.50;;;0.90;;
51995;SDS011;38010;53.264;6.592;2023-05-21T14:41:10;1.80;;;1.25;;
51995;SDS011;38010;53.264;6.592;2023-05-21T14:43:36;1.38;;;0.80;;
51995;SDS011;38010;53.264;6.592;2023-05-21T14:46:02;1.40;;;1.10;;
51995;SDS011;38010;53.264;6.592;2023-05-21T14:48:27;1.85;;;1.00;;
51995;SDS011;38010;53.264;6.592;2023-05-21T14:50:53;3.10;;;1.05;;
51995;SDS011;38010;53.264;6.592;2023-05-21T14:53:19;1.45;;;1.15;;
51995;SDS011;38010;53.264;6.592;2023-05-21T14:55:46;1.10;;;1.00;;
51995;SDS011;38010;53.264;6.592;2023-05-21T14:58:11;1.00;;;0.90;;
51995;SDS011;38010;53.264;6.592;2023-05-21T15:00:38;1.83;;;1.38;;
51995;SDS011;38010;53.264;6.592;2023-05-21T15:03:04;1.65;;;1.00;;
51995;SDS011;38010;53.264;6.592;2023-05-21T15:05:30;1.40;;;1.10;;
51995;SDS011;38010;53.264;6.592;2023-05-21T15:07:56;1.70;;;0.93;;
51995;SDS011;38010;53.264;6.592;2023-05-21T15:10:22;1.08;;;0.93;;
51995;SDS011;38010;53.264;6.592;2023-05-21T15:12:49;0.82;;;0.80;;
51995;SDS011;38010;53.264;6.592;2023-05-21T15:15:15;1.08;;;0.85;;
51995;SDS011;38010;53.264;6.592;2023-05-21T15:17:45;1.60;;;1.05;;
51995;SDS011;38010;53.264;6.592;2023-05-21T15:20:11;1.42;;;0.93;;
51995;SDS011;38010;53.264;6.592;2023-05-21T15:22:37;1.35;;;1.00;;
51995;SDS011;38010;53.264;6.592;2023-05-21T15:25:03;1.42;;;0.90;;
51995;SDS011;38010;53.264;6.592;2023-05-21T15:27:30;1.42;;;0.90;;
51995;SDS011;38010;53.264;6.592;2023-05-21T15:29:56;1.13;;;0.90;;
51995;SDS011;38010;53.264;6.592;2023-05-21T15:32:22;1.52;;;1.10;;